KOCW/OCW METAR and TAF weather

Enter ICAO airport designator
Station Type Date Time Source
KOCW METAR 2019/07/17 12:35 UTC NOAA

KOCW 171235Z AUTO 23007KT 10SM CLR 29/25 A3009 RMK AO2 T02880246


Station Type Date Time Source
KOCW Decoded METAR 2019/07/17 12:35 UTC NOAA

Washington, Warren Field Airport, NC, United States (KOCW) 35-34-14N 077-02-59W
Jul 17, 2019 - 08:35 AM EDT / 2019.07.17 1235 UTC
Wind: from the SW (230 degrees) at 8 MPH (7 KT):0
Visibility: 10 mile(s):0
Sky conditions: clear
Temperature: 83.8 F (28.8 C)
Dew Point: 76.3 F (24.6 C)
Relative Humidity: 78%
Pressure (altimeter): 30.09 in. Hg (1018 hPa)
ob: KOCW 171235Z AUTO 23007KT 10SM CLR 29/25 A3009 RMK AO2 T02880246
cycle: 12

Station Type Date Time Source
KOCW TAF UTC NOAA

Error!

Example: see airport list